createdAt,value
2022-08-27T00:01:39.682Z,26.23
2022-08-27T00:04:09.670Z,30.48
2022-08-27T00:06:36.885Z,33.65
2022-08-27T00:09:05.723Z,34.95
2022-08-27T00:11:33.684Z,25.55
2022-08-27T00:14:01.624Z,32.10
2022-08-27T00:16:29.044Z,36.95
2022-08-27T00:18:58.772Z,28.45
2022-08-27T00:21:26.521Z,30.25
2022-08-27T00:23:54.022Z,34.78
2022-08-27T00:26:21.537Z,38.50
2022-08-27T00:28:48.860Z,33.03
2022-08-27T00:31:16.194Z,35.90
2022-08-27T00:33:44.971Z,38.88
2022-08-27T00:36:16.939Z,34.05
2022-08-27T00:38:44.573Z,33.67
2022-08-27T00:41:12.523Z,31.90
2022-08-27T00:43:56.969Z,32.67
2022-08-27T00:46:47.593Z,33.17
2022-08-27T00:49:18.354Z,30.35
2022-08-27T00:51:52.183Z,29.52
2022-08-27T00:54:20.751Z,37.83
2022-08-27T00:56:51.724Z,34.35
2022-08-27T00:59:23.535Z,34.92
2022-08-27T01:02:12.190Z,43.47
2022-08-27T01:04:42.706Z,39.20
2022-08-27T01:07:10.930Z,33.03
2022-08-27T01:09:39.044Z,33.50
2022-08-27T01:12:06.340Z,30.67
2022-08-27T01:14:34.218Z,31.00
2022-08-27T01:17:03.428Z,34.90
2022-08-27T01:19:52.524Z,29.13
2022-08-27T01:22:39.229Z,30.20
2022-08-27T01:25:09.543Z,33.75
2022-08-27T01:27:39.422Z,29.75
2022-08-27T01:30:08.704Z,35.28
2022-08-27T01:32:36.891Z,28.15
2022-08-27T01:35:07.476Z,33.53
2022-08-27T01:37:35.306Z,41.03
2022-08-27T01:40:03.684Z,31.05
2022-08-27T01:42:40.191Z,34.78
2022-08-27T01:45:13.829Z,38.05
2022-08-27T01:47:41.502Z,31.70
2022-08-27T01:50:17.888Z,38.35
2022-08-27T01:52:45.730Z,29.80
2022-08-27T01:55:15.541Z,34.85
2022-08-27T01:57:43.803Z,38.67
2022-08-27T02:00:42.072Z,29.58
2022-08-27T02:03:12.076Z,55.38
2022-08-27T02:05:44.770Z,38.55
2022-08-27T02:08:16.050Z,33.53
2022-08-27T02:10:49.491Z,41.88
2022-08-27T02:13:18.056Z,45.88
2022-08-27T02:15:45.736Z,48.22
2022-08-27T02:18:38.205Z,41.03
2022-08-27T02:21:08.996Z,41.78
2022-08-27T02:23:36.621Z,47.78
2022-08-27T02:26:04.277Z,43.65
2022-08-27T02:28:31.516Z,41.20
2022-08-27T02:30:58.664Z,45.55
2022-08-27T02:33:26.725Z,40.67
2022-08-27T02:35:53.940Z,53.85
2022-08-27T02:38:21.315Z,52.65
2022-08-27T02:40:48.461Z,46.38
2022-08-27T02:43:16.167Z,39.65
2022-08-27T02:45:53.110Z,44.25
2022-08-27T02:48:21.095Z,44.80
2022-08-27T02:50:48.207Z,47.00
2022-08-27T02:53:15.525Z,49.08
2022-08-27T02:55:43.241Z,46.60
2022-08-27T02:58:10.623Z,43.22
2022-08-27T03:00:38.160Z,50.92
2022-08-27T03:03:05.485Z,49.15
2022-08-27T03:05:32.951Z,43.42
2022-08-27T03:08:00.175Z,51.03
2022-08-27T03:10:27.332Z,58.95
2022-08-27T03:12:54.553Z,55.85
2022-08-27T03:15:29.263Z,52.35
2022-08-27T03:18:15.211Z,44.78
2022-08-27T03:20:44.575Z,57.70
2022-08-27T03:23:12.714Z,47.10
2022-08-27T03:25:42.075Z,45.40
2022-08-27T03:28:11.576Z,44.75
2022-08-27T03:30:53.284Z,39.90
2022-08-27T03:33:22.401Z,37.25
2022-08-27T03:35:58.004Z,38.03
2022-08-27T03:38:25.640Z,43.00
2022-08-27T03:40:52.925Z,45.47
2022-08-27T03:43:21.625Z,40.85
2022-08-27T03:46:01.922Z,40.42
2022-08-27T03:48:32.042Z,34.63
2022-08-27T03:51:05.299Z,38.30
2022-08-27T03:55:59.780Z,40.22
2022-08-27T03:58:29.670Z,41.78
2022-08-27T04:00:57.144Z,39.75
2022-08-27T04:03:24.750Z,37.67
2022-08-27T04:05:56.161Z,43.35
2022-08-27T04:08:24.886Z,42.90
2022-08-27T04:10:53.821Z,43.55
2022-08-27T04:13:22.198Z,46.22
2022-08-27T04:15:51.209Z,43.08
2022-08-27T04:18:18.933Z,43.75
2022-08-27T04:20:52.884Z,46.15
2022-08-27T04:23:20.530Z,52.03
2022-08-27T04:25:48.114Z,47.83
2022-08-27T04:28:16.260Z,45.35
2022-08-27T04:30:45.382Z,38.47
2022-08-27T04:33:13.954Z,43.00
2022-08-27T04:35:42.184Z,41.88
2022-08-27T04:38:09.958Z,38.35
2022-08-27T04:40:56.799Z,45.40
2022-08-27T04:43:24.416Z,41.30
2022-08-27T04:45:51.804Z,41.83
2022-08-27T04:48:19.773Z,38.33
2022-08-27T04:50:55.639Z,49.85
2022-08-27T04:53:22.870Z,45.47
2022-08-27T04:55:55.206Z,46.17
2022-08-27T04:58:24.440Z,46.50
2022-08-27T05:00:56.340Z,48.05
2022-08-27T05:03:24.924Z,52.90
2022-08-27T05:05:54.400Z,48.38
2022-08-27T05:08:21.576Z,54.85
2022-08-27T05:10:50.269Z,54.65
2022-08-27T05:13:19.625Z,57.03
2022-08-27T05:15:47.521Z,55.85
2022-08-27T05:18:15.116Z,67.47
2022-08-27T05:20:46.201Z,61.95
2022-08-27T05:23:17.401Z,56.78
2022-08-27T05:25:47.613Z,64.53
2022-08-27T05:28:16.404Z,66.10
2022-08-27T05:30:49.331Z,67.07
2022-08-27T05:33:25.149Z,84.68
2022-08-27T05:35:55.400Z,79.45
2022-08-27T05:38:28.292Z,82.68
2022-08-27T05:41:09.260Z,85.13
2022-08-27T05:43:38.728Z,89.95
2022-08-27T05:46:07.562Z,79.78
2022-08-27T05:48:36.576Z,91.38
2022-08-27T05:51:25.184Z,84.00
2022-08-27T05:54:08.065Z,74.07
2022-08-27T05:56:38.460Z,56.38
2022-08-27T05:59:25.196Z,62.88
2022-08-27T06:01:55.378Z,61.65
2022-08-27T06:04:24.384Z,50.53
2022-08-27T06:06:52.493Z,51.83
2022-08-27T06:09:23.387Z,58.00
2022-08-27T06:11:51.069Z,57.40
2022-08-27T06:14:18.136Z,54.35
2022-08-27T06:16:45.401Z,67.60
2022-08-27T06:19:12.917Z,71.55
2022-08-27T06:21:41.933Z,68.32
2022-08-27T06:24:12.423Z,74.85
2022-08-27T06:26:42.405Z,71.88
2022-08-27T06:29:10.142Z,70.68
2022-08-27T06:31:38.827Z,68.30
2022-08-27T06:34:09.740Z,73.22
2022-08-27T06:36:39.752Z,71.00
2022-08-27T06:39:08.532Z,75.10
2022-08-27T06:41:36.071Z,77.00
2022-08-27T06:44:03.340Z,80.75
2022-08-27T06:46:30.595Z,81.53
2022-08-27T06:49:00.926Z,82.63
2022-08-27T06:51:33.592Z,80.22
2022-08-27T06:54:04.199Z,73.10
2022-08-27T06:56:32.005Z,73.30
2022-08-27T06:59:02.872Z,71.28
2022-08-27T07:01:32.655Z,65.85
2022-08-27T07:04:02.583Z,75.95
2022-08-27T07:06:31.915Z,66.93
2022-08-27T07:09:00.136Z,59.28
2022-08-27T07:11:29.422Z,50.70
2022-08-27T07:13:56.785Z,54.95
2022-08-27T07:16:25.784Z,43.75
2022-08-27T07:18:55.125Z,44.95
2022-08-27T07:21:22.918Z,45.95
2022-08-27T07:23:52.316Z,47.45
2022-08-27T07:26:21.924Z,39.20
2022-08-27T07:28:50.812Z,45.85
2022-08-27T07:31:20.314Z,47.65
2022-08-27T07:33:51.380Z,47.97
2022-08-27T07:36:23.637Z,43.78
2022-08-27T07:38:59.102Z,43.53
2022-08-27T07:41:31.983Z,48.53
2022-08-27T07:44:21.181Z,43.80
2022-08-27T07:46:57.748Z,43.67
2022-08-27T07:49:27.805Z,49.70
2022-08-27T07:51:55.823Z,51.17
2022-08-27T07:54:23.398Z,37.70
2022-08-27T07:56:55.045Z,38.85
2022-08-27T07:59:24.627Z,38.90
2022-08-27T08:01:52.687Z,36.28
2022-08-27T08:04:20.914Z,38.83
2022-08-27T08:06:48.438Z,38.67
2022-08-27T08:09:16.080Z,36.42
2022-08-27T08:11:43.249Z,36.45
2022-08-27T08:14:10.558Z,34.83
2022-08-27T08:16:37.795Z,34.92
2022-08-27T08:19:05.519Z,34.47
2022-08-27T08:21:32.887Z,35.55
2022-08-27T08:24:00.440Z,35.03
2022-08-27T08:26:27.736Z,32.63
2022-08-27T08:28:55.206Z,32.28
2022-08-27T08:31:24.323Z,29.02
2022-08-27T08:33:52.331Z,27.30
2022-08-27T08:36:19.991Z,25.63
2022-08-27T08:38:47.958Z,24.88
2022-08-27T08:41:39.286Z,25.60
2022-08-27T08:44:26.111Z,25.10
2022-08-27T08:47:00.245Z,28.80
2022-08-27T08:49:30.295Z,22.05
2022-08-27T08:52:30.887Z,21.40
2022-08-27T08:55:37.450Z,24.17
2022-08-27T08:58:16.830Z,23.15
2022-08-27T09:00:46.554Z,24.00
2022-08-27T09:03:16.572Z,27.58
2022-08-27T09:05:49.167Z,27.70
2022-08-27T09:08:37.748Z,27.35
2022-08-27T09:11:54.712Z,26.33
2022-08-27T09:14:21.966Z,25.42
2022-08-27T09:16:50.940Z,28.63
2022-08-27T09:19:27.037Z,25.63
2022-08-27T09:22:21.513Z,25.80
2022-08-27T09:24:57.780Z,21.08
2022-08-27T09:27:25.393Z,25.10
2022-08-27T09:29:57.000Z,26.70
2022-08-27T09:32:28.940Z,22.15
2022-08-27T09:35:07.480Z,22.98
2022-08-27T09:37:45.793Z,28.45
2022-08-27T09:40:22.987Z,27.52
2022-08-27T09:42:54.201Z,25.92
2022-08-27T09:45:24.941Z,28.52
2022-08-27T09:48:02.870Z,25.42
2022-08-27T09:50:58.570Z,25.55
2022-08-27T09:53:35.892Z,27.38
2022-08-27T09:56:07.862Z,27.63
2022-08-27T09:58:45.677Z,28.10
2022-08-27T10:01:34.743Z,28.45
2022-08-27T10:04:10.552Z,21.60
2022-08-27T10:06:44.495Z,26.73
2022-08-27T10:09:25.714Z,23.75
2022-08-27T10:12:07.993Z,23.67
2022-08-27T10:14:44.215Z,24.50
2022-08-27T10:17:30.104Z,22.73
2022-08-27T10:20:07.923Z,15.75
2022-08-27T10:23:05.686Z,15.60
2022-08-27T10:25:39.767Z,15.85
2022-08-27T10:28:22.109Z,15.43
2022-08-27T10:31:39.184Z,12.00
2022-08-27T10:34:21.573Z,13.88
2022-08-27T10:37:36.608Z,14.88
2022-08-27T10:40:19.889Z,19.10
2022-08-27T10:43:03.339Z,13.30
2022-08-27T10:45:47.365Z,17.35
2022-08-27T10:48:34.277Z,13.95
2022-08-27T10:51:32.504Z,15.10
2022-08-27T10:54:33.936Z,17.27
2022-08-27T10:57:31.440Z,18.80
2022-08-27T11:00:10.660Z,20.52
2022-08-27T11:02:55.294Z,21.40
2022-08-27T11:05:37.173Z,21.25
2022-08-27T11:08:17.297Z,20.50
2022-08-27T11:11:26.069Z,20.75
2022-08-27T11:13:53.347Z,18.98
2022-08-27T11:16:48.502Z,21.08
2022-08-27T11:19:31.547Z,22.23
2022-08-27T11:22:12.260Z,22.45
2022-08-27T11:24:56.491Z,28.17
2022-08-27T11:27:26.977Z,26.65
2022-08-27T11:30:00.048Z,17.33
2022-08-27T11:32:46.708Z,18.90
2022-08-27T11:35:23.111Z,12.73
2022-08-27T11:37:59.403Z,18.92
2022-08-27T11:41:00.753Z,14.90
2022-08-27T11:43:33.556Z,13.82
2022-08-27T11:46:05.141Z,15.25
2022-08-27T11:48:59.414Z,15.13
2022-08-27T11:51:34.548Z,15.93
2022-08-27T11:54:07.981Z,14.55
2022-08-27T11:56:42.622Z,12.80
2022-08-27T11:59:23.959Z,16.60
2022-08-27T12:01:54.280Z,16.75
2022-08-27T12:04:37.707Z,16.90
2022-08-27T12:07:29.554Z,12.95
2022-08-27T12:09:56.836Z,12.05
2022-08-27T12:12:54.830Z,12.43
2022-08-27T12:15:48.714Z,11.50
2022-08-27T12:18:39.646Z,11.68
2022-08-27T12:21:22.165Z,12.77
2022-08-27T12:24:22.665Z,14.27
2022-08-27T12:27:02.904Z,13.63
2022-08-27T12:29:46.677Z,13.93
2022-08-27T12:32:29.001Z,15.27
2022-08-27T12:35:03.211Z,16.92
2022-08-27T12:37:57.038Z,12.32
2022-08-27T12:40:30.896Z,12.70
2022-08-27T12:43:09.225Z,21.23
2022-08-27T12:45:49.382Z,22.15
2022-08-27T12:48:24.653Z,20.20
2022-08-27T12:50:54.934Z,19.17
2022-08-27T12:53:27.083Z,26.02
2022-08-27T12:56:19.215Z,15.40
2022-08-27T12:59:08.019Z,18.58
2022-08-27T13:01:57.225Z,17.80
2022-08-27T13:04:28.980Z,14.23
2022-08-27T13:06:59.695Z,15.38
2022-08-27T13:09:38.874Z,15.38
2022-08-27T13:12:29.880Z,13.15
2022-08-27T13:15:08.961Z,16.02
2022-08-27T13:17:45.125Z,15.15
2022-08-27T13:20:23.863Z,19.63
2022-08-27T13:22:52.602Z,19.05
2022-08-27T13:25:30.992Z,19.48
2022-08-27T13:28:11.713Z,21.02
2022-08-27T13:30:47.523Z,20.25
2022-08-27T13:33:27.967Z,18.55
2022-08-27T13:36:00.957Z,16.60
2022-08-27T13:38:31.467Z,19.35
2022-08-27T13:41:00.435Z,17.67
2022-08-27T13:43:39.464Z,18.13
2022-08-27T13:46:13.345Z,20.33
2022-08-27T13:48:43.429Z,17.65
2022-08-27T13:51:12.164Z,17.65
2022-08-27T13:54:04.735Z,20.55
2022-08-27T13:56:33.454Z,18.98
2022-08-27T13:59:12.914Z,24.00
2022-08-27T14:01:58.715Z,20.70
2022-08-27T14:04:39.531Z,26.95
2022-08-27T14:07:09.983Z,23.65
2022-08-27T14:09:54.037Z,29.25
2022-08-27T14:12:33.337Z,22.60
2022-08-27T14:15:31.661Z,26.80
2022-08-27T14:18:01.550Z,31.33
2022-08-27T14:20:32.340Z,30.70
2022-08-27T14:22:59.845Z,24.80
2022-08-27T14:25:27.756Z,24.02
2022-08-27T14:27:57.369Z,27.55
2022-08-27T14:30:29.267Z,31.80
2022-08-27T14:35:40.775Z,25.48
2022-08-27T14:38:14.874Z,27.58
2022-08-27T14:40:42.915Z,26.02
2022-08-27T14:43:10.200Z,24.88
2022-08-27T14:45:39.935Z,23.48
2022-08-27T14:48:18.242Z,28.52
2022-08-27T14:50:47.692Z,23.30
2022-08-27T14:53:15.449Z,18.83
2022-08-27T14:55:42.700Z,19.73
2022-08-27T14:58:18.596Z,16.35
2022-08-27T15:00:45.781Z,24.33
2022-08-27T15:03:13.332Z,24.02
2022-08-27T15:05:40.607Z,17.83
2022-08-27T15:08:13.329Z,18.70
2022-08-27T15:10:41.082Z,19.05
2022-08-27T15:13:11.486Z,27.27
2022-08-27T15:15:39.201Z,19.20
2022-08-27T15:18:06.899Z,21.50
2022-08-27T15:20:34.215Z,19.27
2022-08-27T15:23:02.400Z,16.90
2022-08-27T15:25:30.901Z,20.05
2022-08-27T15:27:58.215Z,21.33
2022-08-27T15:30:28.812Z,19.80
2022-08-27T15:32:56.504Z,19.95
2022-08-27T15:35:26.877Z,19.23
2022-08-27T15:37:56.665Z,17.08
2022-08-27T15:40:25.371Z,17.00
2022-08-27T15:42:57.665Z,20.98
2022-08-27T15:45:25.522Z,18.45
2022-08-27T15:47:53.042Z,23.90
2022-08-27T15:50:20.816Z,23.05
2022-08-27T15:52:49.444Z,20.70
2022-08-27T15:55:25.029Z,19.88
2022-08-27T15:57:52.372Z,17.92
2022-08-27T16:00:20.552Z,15.93
2022-08-27T16:02:48.686Z,22.17
2022-08-27T16:05:16.921Z,24.35
2022-08-27T16:07:44.981Z,17.77
2022-08-27T16:10:13.205Z,20.50
2022-08-27T16:12:40.683Z,23.50
2022-08-27T16:15:08.928Z,27.02
2022-08-27T16:17:36.665Z,28.05
2022-08-27T16:20:05.846Z,28.98
2022-08-27T16:22:34.932Z,28.58
2022-08-27T16:25:09.466Z,29.85
2022-08-27T16:27:37.923Z,34.92
2022-08-27T16:30:06.698Z,33.72
2022-08-27T16:32:34.133Z,31.90
2022-08-27T16:35:02.265Z,32.03
2022-08-27T16:37:30.545Z,33.60
2022-08-27T16:39:57.804Z,30.83
2022-08-27T16:42:25.244Z,30.67
2022-08-27T16:44:53.047Z,33.53
2022-08-27T16:47:20.408Z,28.23
2022-08-27T16:50:06.158Z,37.78
2022-08-27T16:52:36.083Z,33.75
2022-08-27T16:55:04.472Z,32.75
2022-08-27T16:57:31.804Z,33.08
2022-08-27T16:59:59.447Z,33.30
2022-08-27T17:02:31.290Z,40.28
2022-08-27T17:05:17.342Z,31.83
2022-08-27T17:07:48.239Z,32.08
2022-08-27T17:10:18.542Z,39.92
2022-08-27T17:12:47.275Z,35.17
2022-08-27T17:15:17.093Z,47.85
2022-08-27T17:17:47.949Z,51.25
2022-08-27T17:20:15.589Z,41.95
2022-08-27T17:22:43.800Z,45.70
2022-08-27T17:25:11.394Z,54.33
2022-08-27T17:27:38.774Z,47.90
2022-08-27T17:30:06.924Z,58.13
2022-08-27T17:32:39.966Z,59.92
2022-08-27T17:35:08.278Z,64.80
2022-08-27T17:37:38.299Z,67.22
2022-08-27T17:40:06.682Z,57.22
2022-08-27T17:42:34.113Z,58.90
2022-08-27T17:45:01.564Z,66.70
2022-08-27T17:47:30.139Z,67.85
2022-08-27T17:49:58.026Z,71.13
2022-08-27T17:52:25.359Z,76.30
2022-08-27T17:54:56.772Z,64.07
2022-08-27T17:57:29.291Z,65.70
2022-08-27T17:59:59.487Z,72.25
2022-08-27T18:02:33.578Z,68.55
2022-08-27T18:05:01.302Z,66.05
2022-08-27T18:07:28.956Z,65.80
2022-08-27T18:09:56.409Z,67.85
2022-08-27T18:12:25.788Z,68.15
2022-08-27T18:15:21.454Z,66.30
2022-08-27T18:17:53.492Z,76.30
2022-08-27T18:20:24.262Z,72.10
2022-08-27T18:22:52.643Z,72.78
2022-08-27T18:25:24.658Z,77.90
2022-08-27T18:27:56.606Z,79.10
2022-08-27T18:30:24.724Z,76.65
2022-08-27T18:32:52.396Z,73.95
2022-08-27T18:35:25.746Z,69.82
2022-08-27T18:37:54.218Z,69.50
2022-08-27T18:40:24.879Z,72.78
2022-08-27T18:42:53.233Z,72.07
2022-08-27T18:45:26.036Z,69.22
2022-08-27T18:47:57.999Z,69.70
2022-08-27T18:50:26.410Z,69.50
2022-08-27T18:52:56.890Z,71.25
2022-08-27T18:55:27.663Z,73.20
2022-08-27T18:57:55.295Z,70.22
2022-08-27T19:00:23.119Z,69.25
2022-08-27T19:02:52.869Z,66.13
2022-08-27T19:05:26.712Z,76.40
2022-08-27T19:07:55.144Z,73.25
2022-08-27T19:10:23.311Z,67.32
2022-08-27T19:12:50.678Z,71.53
2022-08-27T19:15:18.446Z,72.05
2022-08-27T19:17:50.493Z,73.43
2022-08-27T19:20:18.826Z,78.97
2022-08-27T19:22:47.524Z,72.70
2022-08-27T19:25:16.300Z,80.75
2022-08-27T19:27:53.785Z,72.38
2022-08-27T19:30:21.335Z,76.85
2022-08-27T19:32:48.572Z,84.80
2022-08-27T19:35:22.568Z,74.70
2022-08-27T19:37:52.692Z,71.93
2022-08-27T19:40:22.281Z,70.70
2022-08-27T19:42:50.475Z,69.75
2022-08-27T19:45:23.221Z,76.07
2022-08-27T19:47:52.903Z,68.53
2022-08-27T19:50:20.883Z,75.38
2022-08-27T19:52:48.488Z,71.25
2022-08-27T19:55:16.026Z,69.72
2022-08-27T19:57:44.383Z,66.47
2022-08-27T20:00:14.648Z,70.47
2022-08-27T20:02:41.843Z,73.72
2022-08-27T20:05:18.298Z,70.95
2022-08-27T20:07:50.352Z,79.60
2022-08-27T20:10:19.667Z,71.38
2022-08-27T20:12:49.853Z,72.05
2022-08-27T20:15:19.620Z,68.68
2022-08-27T20:17:47.848Z,72.47
2022-08-27T20:20:21.852Z,78.40
2022-08-27T20:22:49.031Z,72.85
2022-08-27T20:25:16.319Z,70.22
2022-08-27T20:27:43.570Z,76.20
2022-08-27T20:30:13.970Z,73.53
2022-08-27T20:32:41.884Z,69.10
2022-08-27T20:35:10.300Z,73.47
2022-08-27T20:37:42.045Z,75.38
2022-08-27T20:40:13.254Z,78.87
2022-08-27T20:42:40.713Z,75.75
2022-08-27T20:45:11.928Z,75.68
2022-08-27T20:47:41.750Z,74.38
2022-08-27T20:50:09.416Z,73.50
2022-08-27T20:52:39.937Z,72.75
2022-08-27T20:55:14.980Z,79.72
2022-08-27T20:58:06.481Z,79.28
2022-08-27T21:00:36.571Z,78.40
2022-08-27T21:03:04.405Z,82.20
2022-08-27T21:05:34.636Z,79.53
2022-08-27T21:08:06.637Z,79.35
2022-08-27T21:10:35.099Z,81.45
2022-08-27T21:13:05.210Z,78.07
2022-08-27T21:15:33.892Z,80.80
2022-08-27T21:18:01.157Z,79.05
2022-08-27T21:20:28.337Z,82.18
2022-08-27T21:22:57.912Z,83.38
2022-08-27T21:25:26.238Z,86.65
2022-08-27T21:27:54.797Z,82.65
2022-08-27T21:30:22.865Z,78.30
2022-08-27T21:32:50.427Z,84.68
2022-08-27T21:35:17.609Z,79.57
2022-08-27T21:37:44.752Z,87.10
2022-08-27T21:40:15.059Z,79.65
2022-08-27T21:42:42.360Z,85.20
2022-08-27T21:45:09.612Z,89.68
2022-08-27T21:47:36.914Z,81.78
2022-08-27T21:50:07.086Z,88.35
2022-08-27T21:52:34.496Z,87.88
2022-08-27T21:55:01.777Z,77.90
2022-08-27T21:57:30.728Z,86.68
2022-08-27T21:59:57.949Z,80.88
2022-08-27T22:02:39.797Z,89.07
2022-08-27T22:05:11.528Z,85.45
2022-08-27T22:07:38.736Z,92.88
2022-08-27T22:10:06.897Z,88.55
2022-08-27T22:12:34.579Z,86.75
2022-08-27T22:15:02.058Z,83.30
2022-08-27T22:17:35.319Z,89.43
2022-08-27T22:20:04.314Z,91.47
2022-08-27T22:22:36.833Z,89.78
2022-08-27T22:25:05.716Z,84.82
2022-08-27T22:27:32.873Z,90.03
2022-08-27T22:30:00.343Z,90.05
2022-08-27T22:32:27.653Z,83.32
2022-08-27T22:34:54.779Z,85.13
2022-08-27T22:37:22.017Z,81.80
2022-08-27T22:39:49.245Z,83.25
2022-08-27T22:42:20.924Z,81.53
2022-08-27T22:44:48.357Z,91.10
2022-08-27T22:47:15.605Z,84.28
2022-08-27T22:49:44.072Z,83.40
2022-08-27T22:52:11.928Z,80.20
2022-08-27T22:54:39.717Z,88.57
2022-08-27T22:57:10.455Z,89.65
2022-08-27T22:59:39.128Z,89.25
2022-08-27T23:02:08.530Z,81.63
2022-08-27T23:04:54.044Z,83.03
2022-08-27T23:07:22.354Z,82.70
2022-08-27T23:09:49.640Z,85.18
2022-08-27T23:12:16.960Z,76.20
2022-08-27T23:14:44.100Z,82.70
2022-08-27T23:17:11.347Z,78.50
2022-08-27T23:19:38.564Z,79.32
2022-08-27T23:22:07.174Z,83.35
2022-08-27T23:24:55.007Z,80.50
2022-08-27T23:27:31.137Z,82.88
2022-08-27T23:29:59.889Z,85.88
2022-08-27T23:32:27.601Z,78.80
2022-08-27T23:34:55.339Z,77.57
2022-08-27T23:37:23.994Z,80.47
2022-08-27T23:39:51.548Z,82.75
2022-08-27T23:42:19.167Z,80.38
2022-08-27T23:44:48.543Z,79.80
2022-08-27T23:47:16.598Z,88.45
2022-08-27T23:49:43.971Z,87.40
2022-08-27T23:52:12.532Z,81.38
2022-08-27T23:54:39.995Z,83.43
2022-08-27T23:57:07.155Z,82.32
2022-08-27T23:59:34.332Z,79.93
